Time;durP1;ratioP1;P1;durP2;ratioP2;P2;SDS_P1;SDS_P2;PMS_P1;PMS_P2;Temp;Humidity;BMP_temperature;BMP_pressure;BME280_temperature;BME280_humidity;BME280_pressure;Samples;Min_cycle;Max_cycle;Signal;HPM_P1;HPM_P2
2022/05/08 00:01:09;;;;;;;8.02;5.47;;;19.80;42.40;;;;;;5061921;28;20511;-83
2022/05/08 00:03:35;;;;;;;9.75;5.65;;;19.70;42.40;;;;;;5064852;28;20025;-83
2022/05/08 00:06:07;;;;;;;10.93;6.10;;;19.70;42.40;;;;;;5049801;28;20367;-84
2022/05/08 00:08:33;;;;;;;9.32;5.88;;;19.70;42.40;;;;;;5050466;28;20082;-84
2022/05/08 00:10:58;;;;;;;8.98;6.22;;;19.70;42.40;;;;;;5050905;28;20036;-85
2022/05/08 00:13:24;;;;;;;9.23;6.35;;;19.70;42.40;;;;;;5047604;28;20040;-86
2022/05/08 00:15:50;;;;;;;9.27;6.45;;;19.70;42.30;;;;;;5063883;28;20773;-84
2022/05/08 00:18:16;;;;;;;7.43;6.43;;;19.70;42.40;;;;;;5046392;28;20024;-85
2022/05/08 00:20:42;;;;;;;9.88;6.28;;;19.70;42.40;;;;;;5050704;28;20036;-83
2022/05/08 00:23:09;;;;;;;11.10;6.50;;;19.70;42.50;;;;;;5061300;28;20086;-84
2022/05/08 00:25:37;;;;;;;11.85;6.55;;;19.70;42.50;;;;;;5046562;28;20032;-84
2022/05/08 00:28:03;;;;;;;11.50;6.82;;;19.70;42.50;;;;;;5049958;28;20059;-86
2022/05/08 00:30:29;;;;;;;10.20;6.45;;;19.70;42.50;;;;;;5064301;28;20032;-84
2022/05/08 00:32:55;;;;;;;10.00;7.10;;;19.70;42.50;;;;;;5061783;28;20510;-84
2022/05/08 00:35:21;;;;;;;9.45;7.13;;;19.70;42.50;;;;;;5050021;28;20395;-85
2022/05/08 00:37:47;;;;;;;12.73;6.40;;;19.70;42.40;;;;;;5064683;28;20033;-84
2022/05/08 00:40:13;;;;;;;8.02;6.47;;;19.70;42.40;;;;;;5033555;28;20043;-84
2022/05/08 00:42:39;;;;;;;9.68;6.55;;;19.70;42.40;;;;;;5049479;28;20032;-84
2022/05/08 00:45:05;;;;;;;10.05;6.65;;;19.60;42.40;;;;;;5045800;28;20029;-84
2022/05/08 00:47:31;;;;;;;13.88;6.88;;;19.70;42.50;;;;;;5060026;28;20024;-84
2022/05/08 00:49:57;;;;;;;11.43;6.53;;;19.70;42.50;;;;;;5032781;28;20127;-86
2022/05/08 00:52:23;;;;;;;13.45;6.90;;;19.60;42.40;;;;;;5061747;28;20502;-86
2022/05/08 00:54:50;;;;;;;8.82;6.78;;;19.60;42.50;;;;;;5062717;28;20094;-85
2022/05/08 00:57:18;;;;;;;9.80;6.80;;;19.60;42.50;;;;;;5065624;28;20035;-84
2022/05/08 00:59:45;;;;;;;9.45;6.20;;;19.60;42.40;;;;;;5051803;28;20032;-84
2022/05/08 01:02:10;;;;;;;9.25;6.35;;;19.60;42.50;;;;;;5062440;28;20068;-84
2022/05/08 01:04:37;;;;;;;11.98;6.82;;;19.60;42.40;;;;;;5061593;28;20057;-84
2022/05/08 01:07:03;;;;;;;9.52;6.15;;;19.60;42.50;;;;;;5045450;28;20503;-85
2022/05/08 01:09:29;;;;;;;8.52;5.90;;;19.60;42.50;;;;;;5048186;28;20032;-84
2022/05/08 01:11:57;;;;;;;11.63;6.57;;;19.60;42.60;;;;;;5063065;28;20045;-83
2022/05/08 01:14:23;;;;;;;9.80;5.78;;;19.60;42.60;;;;;;5062694;28;20081;-86
2022/05/08 01:16:49;;;;;;;9.05;6.50;;;19.60;42.60;;;;;;5045477;28;20476;-85
2022/05/08 01:19:16;;;;;;;10.68;5.93;;;19.60;42.70;;;;;;5064321;28;20045;-85
2022/05/08 01:21:43;;;;;;;8.23;5.35;;;19.60;42.80;;;;;;5060893;28;20838;-85
2022/05/08 01:24:09;;;;;;;8.20;5.75;;;19.60;42.80;;;;;;5061314;28;20031;-83
2022/05/08 01:26:36;;;;;;;8.70;5.88;;;19.60;42.90;;;;;;5043624;28;20025;-83
2022/05/08 01:29:03;;;;;;;8.95;6.28;;;19.60;43.00;;;;;;5062151;28;20096;-84
2022/05/08 01:31:31;;;;;;;10.52;5.78;;;19.60;43.00;;;;;;5048678;28;20041;-83
2022/05/08 01:33:57;;;;;;;11.30;6.50;;;19.60;42.90;;;;;;5061255;28;20411;-85
2022/05/08 01:36:23;;;;;;;11.20;5.88;;;19.60;42.90;;;;;;5049235;28;20033;-84
2022/05/08 01:38:50;;;;;;;8.20;5.30;;;19.50;43.00;;;;;;5061167;28;20052;-84
2022/05/08 01:41:16;;;;;;;22.60;6.70;;;19.50;43.00;;;;;;5043955;28;20116;-84
2022/05/08 01:43:42;;;;;;;8.25;6.18;;;19.60;43.10;;;;;;5060849;28;20038;-84
2022/05/08 01:46:09;;;;;;;7.43;5.97;;;19.60;42.90;;;;;;5047828;28;20930;-86
2022/05/08 01:48:35;;;;;;;9.43;6.07;;;19.50;42.90;;;;;;5049502;28;20675;-85
2022/05/08 01:51:03;;;;;;;9.65;6.25;;;19.60;43.00;;;;;;5061322;28;20110;-87
2022/05/08 01:53:35;;;;;;;9.27;6.50;;;19.50;43.10;;;;;;5061282;28;20121;-87
2022/05/08 01:56:04;;;;;;;8.48;5.90;;;19.60;43.10;;;;;;5066397;28;20041;-86
2022/05/08 01:58:31;;;;;;;11.20;6.40;;;19.50;43.00;;;;;;5065535;28;20036;-86
2022/05/08 02:00:59;;;;;;;7.15;5.50;;;19.60;43.10;;;;;;5051677;28;20071;-87
2022/05/08 02:03:25;;;;;;;8.35;5.97;;;19.50;43.00;;;;;;5063625;28;20120;-85
2022/05/08 02:05:52;;;;;;;8.10;5.63;;;19.50;42.90;;;;;;5049676;28;20048;-86
2022/05/08 02:08:18;;;;;;;9.70;5.72;;;19.50;42.90;;;;;;5047265;28;20067;-85
2022/05/08 02:10:47;;;;;;;9.52;5.68;;;19.50;43.00;;;;;;5032021;28;20173;-86
2022/05/08 02:13:13;;;;;;;9.88;5.97;;;19.60;43.10;;;;;;5060838;28;20029;-84
2022/05/08 02:15:39;;;;;;;7.72;5.55;;;19.50;43.10;;;;;;5044923;28;20111;-85
2022/05/08 02:18:07;;;;;;;7.32;5.30;;;19.50;43.10;;;;;;5048118;28;20437;-85
2022/05/08 02:20:34;;;;;;;10.75;5.30;;;19.50;42.90;;;;;;5048525;28;20021;-86
2022/05/08 02:23:00;;;;;;;11.73;5.50;;;19.50;43.00;;;;;;5048104;28;20033;-82
2022/05/08 02:25:26;;;;;;;11.85;5.20;;;19.50;43.00;;;;;;5060264;28;20064;-83
2022/05/08 02:27:52;;;;;;;8.02;5.82;;;19.60;43.00;;;;;;5058478;28;20037;-83
2022/05/08 02:30:21;;;;;;;7.05;5.38;;;19.50;43.00;;;;;;5079244;28;20419;-82
2022/05/08 02:32:48;;;;;;;10.15;5.22;;;19.50;43.00;;;;;;5031144;28;21070;-83
2022/05/08 02:35:14;;;;;;;8.45;4.97;;;19.50;42.90;;;;;;5065121;28;20046;-83
2022/05/08 02:37:41;;;;;;;7.28;5.05;;;19.50;42.80;;;;;;5037794;28;20102;-83
2022/05/08 02:40:08;;;;;;;8.60;4.93;;;19.50;42.80;;;;;;5051391;28;20033;-83
2022/05/08 02:42:36;;;;;;;7.00;4.93;;;19.50;43.50;;;;;;5052681;28;20372;-83
2022/05/08 02:45:03;;;;;;;9.20;4.97;;;19.50;42.90;;;;;;5047981;28;20033;-83
2022/05/08 02:47:32;;;;;;;9.27;5.10;;;19.50;42.80;;;;;;5065335;28;20035;-84
2022/05/08 02:49:58;;;;;;;8.18;4.90;;;19.50;42.80;;;;;;5047198;28;20040;-84
2022/05/08 02:52:24;;;;;;;8.23;4.93;;;19.50;42.80;;;;;;5050478;28;20110;-84
2022/05/08 02:54:50;;;;;;;8.00;4.95;;;19.50;42.80;;;;;;5061985;28;20035;-85
2022/05/08 03:00:05;;;;;;;8.00;5.18;;;19.50;42.90;;;;;;5063694;28;20465;-87
2022/05/08 03:02:35;;;;;;;7.47;5.07;;;19.50;42.90;;;;;;5049929;28;20071;-87
2022/05/08 03:05:02;;;;;;;6.30;4.45;;;19.50;42.80;;;;;;5052646;28;20052;-86
2022/05/08 03:07:29;;;;;;;7.85;4.93;;;19.50;42.80;;;;;;5052056;28;20032;-86
2022/05/08 03:09:56;;;;;;;9.48;5.32;;;19.50;42.80;;;;;;5063735;28;20044;-86
2022/05/08 03:12:23;;;;;;;7.53;4.60;;;19.50;42.80;;;;;;5066739;28;20036;-87
2022/05/08 03:14:49;;;;;;;7.28;4.93;;;19.50;42.80;;;;;;5063220;28;20122;-86
2022/05/08 03:17:16;;;;;;;7.55;5.22;;;19.50;42.90;;;;;;5062612;28;20580;-84
2022/05/08 03:19:42;;;;;;;8.38;5.05;;;19.50;42.80;;;;;;5050798;28;20526;-85
2022/05/08 03:22:08;;;;;;;8.88;5.18;;;19.50;43.00;;;;;;5061194;28;20040;-84
2022/05/08 03:24:34;;;;;;;7.70;5.03;;;19.50;43.00;;;;;;5061722;28;20044;-85
2022/05/08 03:27:00;;;;;;;11.25;5.50;;;19.50;43.00;;;;;;5063727;28;20380;-84
2022/05/08 03:29:26;;;;;;;7.78;5.43;;;19.50;43.00;;;;;;5050216;28;20035;-84
2022/05/08 03:31:53;;;;;;;7.38;5.00;;;19.50;43.00;;;;;;5062105;28;20036;-84
2022/05/08 03:34:21;;;;;;;9.43;5.28;;;19.50;43.00;;;;;;5046419;28;20495;-85
2022/05/08 03:36:47;;;;;;;6.95;5.07;;;19.60;43.00;;;;;;5062857;28;20044;-85
2022/05/08 03:39:13;;;;;;;11.27;4.90;;;19.50;43.00;;;;;;5063421;28;20033;-86
2022/05/08 03:41:39;;;;;;;6.95;5.13;;;19.50;43.10;;;;;;5062875;28;20040;-86
2022/05/08 03:44:06;;;;;;;7.53;4.93;;;19.50;43.00;;;;;;5065292;28;20114;-86
2022/05/08 03:46:32;;;;;;;7.63;4.55;;;19.50;43.00;;;;;;5062738;28;20753;-84
2022/05/08 03:48:58;;;;;;;7.93;5.07;;;19.60;43.00;;;;;;5063408;28;20128;-85
2022/05/08 03:51:24;;;;;;;6.72;4.78;;;19.60;43.00;;;;;;5050240;28;20068;-85
2022/05/08 03:53:50;;;;;;;8.80;5.07;;;19.60;43.10;;;;;;5062199;28;20127;-86
2022/05/08 03:56:16;;;;;;;8.82;5.10;;;19.60;43.10;;;;;;5050062;28;20048;-86
2022/05/08 03:58:43;;;;;;;5.53;4.80;;;19.60;43.00;;;;;;5047369;28;20489;-86
2022/05/08 04:01:09;;;;;;;5.20;4.63;;;19.60;43.00;;;;;;5060627;28;20024;-85
2022/05/08 04:03:35;;;;;;;10.27;5.25;;;19.60;43.10;;;;;;5059835;28;20059;-86
2022/05/08 04:06:04;;;;;;;10.63;5.43;;;19.60;43.10;;;;;;5061129;28;20040;-83
2022/05/08 04:08:32;;;;;;;10.85;5.45;;;19.60;43.10;;;;;;5066503;28;20016;-85
2022/05/08 04:10:58;;;;;;;8.23;5.07;;;19.60;43.10;;;;;;5065327;28;20041;-84
2022/05/08 04:13:24;;;;;;;5.97;4.75;;;19.60;43.10;;;;;;5067327;28;20043;-85
2022/05/08 04:18:35;;;;;;;5.75;4.90;;;19.60;43.10;;;;;;5062461;28;20029;-85
2022/05/08 04:21:01;;;;;;;8.05;5.28;;;19.70;43.10;;;;;;5046673;28;20051;-85
2022/05/08 04:26:12;;;;;;;11.90;5.28;;;19.70;43.10;;;;;;5049582;28;20045;-85
2022/05/08 04:28:37;;;;;;;6.15;4.80;;;19.70;43.10;;;;;;5049124;28;20044;-85
2022/05/08 04:31:03;;;;;;;8.18;4.90;;;19.70;43.10;;;;;;5065390;28;20475;-83
2022/05/08 04:33:29;;;;;;;10.55;5.32;;;19.80;43.10;;;;;;5062943;28;20057;-85
2022/05/08 04:35:55;;;;;;;11.48;5.32;;;19.70;43.10;;;;;;5044833;28;20028;-84
2022/05/08 04:38:21;;;;;;;8.18;5.38;;;19.80;43.10;;;;;;5049204;28;20043;-84
2022/05/08 04:40:47;;;;;;;8.60;5.10;;;19.80;43.10;;;;;;5061054;28;20037;-84
2022/05/08 04:43:13;;;;;;;7.50;5.32;;;19.80;43.30;;;;;;5061958;28;20090;-85
2022/05/08 04:45:39;;;;;;;7.30;5.47;;;19.80;43.40;;;;;;5061731;28;20067;-85
2022/05/08 04:48:05;;;;;;;9.18;4.85;;;19.80;43.40;;;;;;5064165;28;20032;-85
2022/05/08 04:50:31;;;;;;;6.60;4.68;;;19.90;43.50;;;;;;5076278;28;20241;-86
2022/05/08 04:52:57;;;;;;;8.32;4.90;;;20.00;43.50;;;;;;5042309;28;20033;-85
2022/05/08 04:55:23;;;;;;;5.22;4.22;;;20.00;43.50;;;;;;5065606;28;20536;-86
2022/05/08 04:57:49;;;;;;;6.50;4.60;;;20.20;43.50;;;;;;5058763;28;20029;-85
2022/05/08 05:00:16;;;;;;;9.10;5.07;;;20.30;43.50;;;;;;5043030;28;20090;-87
2022/05/08 05:02:44;;;;;;;7.97;4.50;;;20.40;43.40;;;;;;5060864;28;20029;-87
2022/05/08 05:05:10;;;;;;;7.22;4.60;;;20.50;43.40;;;;;;5059109;28;20165;-87
2022/05/08 05:07:40;;;;;;;7.00;4.97;;;20.60;43.50;;;;;;5060955;28;20063;-87
2022/05/08 05:10:12;;;;;;;10.18;4.65;;;20.60;43.40;;;;;;5048889;28;20044;-88
2022/05/08 05:12:39;;;;;;;6.85;4.53;;;20.70;43.20;;;;;;5049787;28;20044;-86
2022/05/08 05:15:08;;;;;;;6.45;4.78;;;20.70;43.20;;;;;;5032888;28;20037;-86
2022/05/08 05:17:35;;;;;;;7.13;5.20;;;20.70;43.10;;;;;;5064643;28;20052;-86
2022/05/08 05:20:02;;;;;;;6.38;4.47;;;20.80;43.20;;;;;;5058938;28;20166;-84
2022/05/08 05:22:28;;;;;;;7.90;5.18;;;20.70;43.20;;;;;;5060478;28;20174;-83
2022/05/08 05:24:57;;;;;;;7.32;5.13;;;20.70;43.10;;;;;;5048537;28;20033;-84
2022/05/08 05:27:24;;;;;;;10.68;5.03;;;20.80;43.10;;;;;;5059627;28;20605;-83
2022/05/08 05:29:50;;;;;;;6.85;4.88;;;20.80;43.10;;;;;;5060703;28;20036;-83
2022/05/08 05:32:16;;;;;;;9.57;4.80;;;20.90;43.10;;;;;;5041439;28;20057;-83
2022/05/08 05:34:42;;;;;;;7.38;4.88;;;21.00;43.20;;;;;;5048733;28;20082;-83
2022/05/08 05:37:08;;;;;;;8.20;5.13;;;21.00;43.10;;;;;;5060115;28;20036;-84
2022/05/08 05:39:34;;;;;;;14.18;5.85;;;21.10;43.10;;;;;;5047880;28;20028;-89
2022/05/08 05:42:00;;;;;;;9.00;4.82;;;21.10;43.10;;;;;;5060363;28;20038;-84
2022/05/08 05:44:26;;;;;;;7.30;5.47;;;21.10;43.10;;;;;;5047500;28;20028;-83
2022/05/08 05:49:38;;;;;;;8.88;5.50;;;21.30;43.00;;;;;;5060672;28;20430;-82
2022/05/08 05:52:07;;;;;;;8.88;5.20;;;21.30;43.10;;;;;;5046280;28;20051;-82
2022/05/08 05:54:34;;;;;;;7.15;4.68;;;21.40;43.10;;;;;;5076799;28;20036;-86
2022/05/08 05:56:59;;;;;;;10.13;5.38;;;21.60;43.20;;;;;;5058996;28;20403;-83
2022/05/08 05:59:25;;;;;;;7.53;4.72;;;21.70;43.10;;;;;;5058004;28;20042;-82
2022/05/08 06:01:51;;;;;;;8.10;5.38;;;21.80;43.10;;;;;;5058500;28;20109;-83
2022/05/08 06:04:17;;;;;;;9.25;4.78;;;21.90;43.10;;;;;;5076636;28;20040;-84
2022/05/08 06:06:43;;;;;;;8.93;4.30;;;21.90;43.10;;;;;;5048232;28;20033;-84
2022/05/08 06:09:09;;;;;;;10.48;5.22;;;21.90;43.10;;;;;;5064175;28;20035;-83
2022/05/08 06:11:35;;;;;;;7.63;4.57;;;22.00;43.30;;;;;;5063163;28;20063;-84
2022/05/08 06:14:01;;;;;;;7.68;5.00;;;22.10;43.20;;;;;;5067279;28;20032;-84
2022/05/08 06:16:27;;;;;;;9.18;5.05;;;22.20;43.30;;;;;;5061913;28;20230;-83
2022/05/08 06:18:53;;;;;;;5.28;4.30;;;22.20;43.30;;;;;;5062639;28;20071;-81
2022/05/08 06:21:19;;;;;;;8.52;4.97;;;22.30;43.30;;;;;;5052070;28;20044;-81
2022/05/08 06:23:45;;;;;;;9.40;5.20;;;22.30;43.40;;;;;;5047050;28;20039;-82
2022/05/08 06:26:11;;;;;;;11.52;4.88;;;22.30;43.40;;;;;;5047976;28;20038;-82
2022/05/08 06:28:37;;;;;;;6.55;5.22;;;22.40;43.60;;;;;;5062469;28;20029;-80
2022/05/08 06:31:03;;;;;;;8.88;4.35;;;22.30;43.60;;;;;;5066114;28;20036;-81
2022/05/08 06:33:29;;;;;;;7.85;4.88;;;22.30;43.80;;;;;;5060611;28;20028;-85
